sensor_id;sensor_type;location;lat;lon;timestamp;temperature;humidity
39079;DHT22;24829;49.208;12.080;2024-01-30T00:02:16;-1.00;99.90
39079;DHT22;24829;49.208;12.080;2024-01-30T00:04:42;-1.00;99.90
39079;DHT22;24829;49.208;12.080;2024-01-30T00:07:08;-1.00;99.90
39079;DHT22;24829;49.208;12.080;2024-01-30T00:09:33;-1.00;99.90
39079;DHT22;24829;49.208;12.080;2024-01-30T00:11:59;-1.00;99.90
39079;DHT22;24829;49.208;12.080;2024-01-30T00:14:25;-1.00;99.90
39079;DHT22;24829;49.208;12.080;2024-01-30T00:16:51;-1.00;99.90
39079;DHT22;24829;49.208;12.080;2024-01-30T00:19:17;-1.10;99.90
39079;DHT22;24829;49.208;12.080;2024-01-30T00:21:43;-1.00;99.90
39079;DHT22;24829;49.208;12.080;2024-01-30T00:24:08;-1.00;99.90
39079;DHT22;24829;49.208;12.080;2024-01-30T00:26:34;-1.00;99.90
39079;DHT22;24829;49.208;12.080;2024-01-30T00:29:00;-1.00;99.90
39079;DHT22;24829;49.208;12.080;2024-01-30T00:31:26;-1.00;99.90
39079;DHT22;24829;49.208;12.080;2024-01-30T00:33:51;-1.00;99.90
39079;DHT22;24829;49.208;12.080;2024-01-30T00:36:17;-1.10;99.90
39079;DHT22;24829;49.208;12.080;2024-01-30T00:38:43;-1.00;99.90
39079;DHT22;24829;49.208;12.080;2024-01-30T00:41:09;-1.10;99.90
39079;DHT22;24829;49.208;12.080;2024-01-30T00:43:35;-1.10;99.90
39079;DHT22;24829;49.208;12.080;2024-01-30T00:46:01;-1.10;99.90
39079;DHT22;24829;49.208;12.080;2024-01-30T00:48:26;-1.10;99.90
39079;DHT22;24829;49.208;12.080;2024-01-30T00:50:52;-1.20;99.90
39079;DHT22;24829;49.208;12.080;2024-01-30T00:53:18;-1.10;99.90
39079;DHT22;24829;49.208;12.080;2024-01-30T00:55:43;-1.10;99.90
39079;DHT22;24829;49.208;12.080;2024-01-30T00:58:09;-1.10;99.90
39079;DHT22;24829;49.208;12.080;2024-01-30T01:00:35;-1.10;99.90
39079;DHT22;24829;49.208;12.080;2024-01-30T01:03:00;-1.20;99.90
39079;DHT22;24829;49.208;12.080;2024-01-30T01:05:26;-1.20;99.90
39079;DHT22;24829;49.208;12.080;2024-01-30T01:07:52;-1.10;99.90
39079;DHT22;24829;49.208;12.080;2024-01-30T01:10:18;-1.10;99.90
39079;DHT22;24829;49.208;12.080;2024-01-30T01:12:44;-1.10;99.90
39079;DHT22;24829;49.208;12.080;2024-01-30T01:15:10;-1.10;99.90
39079;DHT22;24829;49.208;12.080;2024-01-30T01:17:39;-1.10;99.90
39079;DHT22;24829;49.208;12.080;2024-01-30T01:20:06;-1.10;99.90
39079;DHT22;24829;49.208;12.080;2024-01-30T01:22:32;-1.10;99.90
39079;DHT22;24829;49.208;12.080;2024-01-30T01:24:59;-1.10;99.90
39079;DHT22;24829;49.208;12.080;2024-01-30T01:27:25;-1.10;99.90
39079;DHT22;24829;49.208;12.080;2024-01-30T01:29:51;-1.10;99.90
39079;DHT22;24829;49.208;12.080;2024-01-30T01:32:17;-1.10;99.90
39079;DHT22;24829;49.208;12.080;2024-01-30T01:34:42;-1.10;99.90
39079;DHT22;24829;49.208;12.080;2024-01-30T01:37:08;-1.20;99.90
39079;DHT22;24829;49.208;12.080;2024-01-30T01:39:34;-1.30;99.90
39079;DHT22;24829;49.208;12.080;2024-01-30T01:41:59;-1.40;99.90
39079;DHT22;24829;49.208;12.080;2024-01-30T01:44:25;-1.50;99.90
39079;DHT22;24829;49.208;12.080;2024-01-30T01:46:52;-1.50;99.90
39079;DHT22;24829;49.208;12.080;2024-01-30T01:49:18;-1.60;99.90
39079;DHT22;24829;49.208;12.080;2024-01-30T01:51:45;-1.60;99.90
39079;DHT22;24829;49.208;12.080;2024-01-30T01:54:13;-1.60;99.90
39079;DHT22;24829;49.208;12.080;2024-01-30T01:56:39;-1.70;99.90
39079;DHT22;24829;49.208;12.080;2024-01-30T01:59:07;-1.70;99.90
39079;DHT22;24829;49.208;12.080;2024-01-30T02:01:34;-1.70;99.90
39079;DHT22;24829;49.208;12.080;2024-01-30T02:04:00;-1.70;99.90
39079;DHT22;24829;49.208;12.080;2024-01-30T02:06:26;-1.70;99.90
39079;DHT22;24829;49.208;12.080;2024-01-30T02:08:53;-1.80;99.90
39079;DHT22;24829;49.208;12.080;2024-01-30T02:11:19;-1.80;99.90
39079;DHT22;24829;49.208;12.080;2024-01-30T02:13:45;-1.80;99.90
39079;DHT22;24829;49.208;12.080;2024-01-30T02:16:11;-1.80;99.90
39079;DHT22;24829;49.208;12.080;2024-01-30T02:18:36;-1.80;99.90
39079;DHT22;24829;49.208;12.080;2024-01-30T02:21:07;-1.80;99.90
39079;DHT22;24829;49.208;12.080;2024-01-30T02:23:34;-1.80;99.90
39079;DHT22;24829;49.208;12.080;2024-01-30T02:26:00;-1.80;99.90
39079;DHT22;24829;49.208;12.080;2024-01-30T02:28:25;-1.80;99.90
39079;DHT22;24829;49.208;12.080;2024-01-30T02:30:51;-1.80;99.90
39079;DHT22;24829;49.208;12.080;2024-01-30T02:33:17;-1.80;99.90
39079;DHT22;24829;49.208;12.080;2024-01-30T02:35:42;-1.80;99.90
39079;DHT22;24829;49.208;12.080;2024-01-30T02:38:08;-1.90;99.90
39079;DHT22;24829;49.208;12.080;2024-01-30T02:40:34;-1.90;99.90
39079;DHT22;24829;49.208;12.080;2024-01-30T02:43:01;-1.90;99.90
39079;DHT22;24829;49.208;12.080;2024-01-30T02:45:27;-1.90;99.90
39079;DHT22;24829;49.208;12.080;2024-01-30T02:47:52;-1.90;99.90
39079;DHT22;24829;49.208;12.080;2024-01-30T02:50:18;-1.90;99.90
39079;DHT22;24829;49.208;12.080;2024-01-30T02:52:44;-1.90;99.90
39079;DHT22;24829;49.208;12.080;2024-01-30T02:55:10;-1.90;99.90
39079;DHT22;24829;49.208;12.080;2024-01-30T02:57:36;-1.90;99.90
39079;DHT22;24829;49.208;12.080;2024-01-30T03:00:02;-1.90;99.90
39079;DHT22;24829;49.208;12.080;2024-01-30T03:02:29;-1.90;99.90
39079;DHT22;24829;49.208;12.080;2024-01-30T03:04:55;-1.90;99.90
39079;DHT22;24829;49.208;12.080;2024-01-30T03:07:20;-1.80;99.90
39079;DHT22;24829;49.208;12.080;2024-01-30T03:09:46;-1.70;99.90
39079;DHT22;24829;49.208;12.080;2024-01-30T03:12:11;-1.70;99.90
39079;DHT22;24829;49.208;12.080;2024-01-30T03:14:37;-1.70;99.90
39079;DHT22;24829;49.208;12.080;2024-01-30T03:17:03;-1.70;99.90
39079;DHT22;24829;49.208;12.080;2024-01-30T03:19:28;-1.70;99.90
39079;DHT22;24829;49.208;12.080;2024-01-30T03:21:54;-1.80;99.90
39079;DHT22;24829;49.208;12.080;2024-01-30T03:24:19;-1.80;99.90
39079;DHT22;24829;49.208;12.080;2024-01-30T03:26:45;-1.80;99.90
39079;DHT22;24829;49.208;12.080;2024-01-30T03:29:11;-1.80;99.90
39079;DHT22;24829;49.208;12.080;2024-01-30T03:31:38;-1.90;99.90
39079;DHT22;24829;49.208;12.080;2024-01-30T03:34:04;-1.90;99.90
39079;DHT22;24829;49.208;12.080;2024-01-30T03:36:29;-1.90;99.90
39079;DHT22;24829;49.208;12.080;2024-01-30T03:38:58;-1.90;99.90
39079;DHT22;24829;49.208;12.080;2024-01-30T03:41:24;-2.00;99.90
39079;DHT22;24829;49.208;12.080;2024-01-30T03:43:49;-2.10;99.90
39079;DHT22;24829;49.208;12.080;2024-01-30T03:46:15;-2.30;99.90
39079;DHT22;24829;49.208;12.080;2024-01-30T03:48:41;-2.30;99.90
39079;DHT22;24829;49.208;12.080;2024-01-30T03:51:06;-2.40;99.90
39079;DHT22;24829;49.208;12.080;2024-01-30T03:53:32;-2.40;99.90
39079;DHT22;24829;49.208;12.080;2024-01-30T03:55:57;-2.40;99.90
39079;DHT22;24829;49.208;12.080;2024-01-30T03:58:23;-2.50;99.90
39079;DHT22;24829;49.208;12.080;2024-01-30T04:00:48;-2.50;99.90
39079;DHT22;24829;49.208;12.080;2024-01-30T04:03:14;-2.50;99.90
39079;DHT22;24829;49.208;12.080;2024-01-30T04:05:41;-2.50;99.90
39079;DHT22;24829;49.208;12.080;2024-01-30T04:08:07;-2.50;99.90
39079;DHT22;24829;49.208;12.080;2024-01-30T04:10:33;-2.50;99.90
39079;DHT22;24829;49.208;12.080;2024-01-30T04:12:58;-2.50;99.90
39079;DHT22;24829;49.208;12.080;2024-01-30T04:15:24;-2.50;99.90
39079;DHT22;24829;49.208;12.080;2024-01-30T04:17:50;-2.40;99.90
39079;DHT22;24829;49.208;12.080;2024-01-30T04:20:16;-2.50;99.90
39079;DHT22;24829;49.208;12.080;2024-01-30T04:22:43;-2.50;99.90
39079;DHT22;24829;49.208;12.080;2024-01-30T04:25:09;-2.50;99.90
39079;DHT22;24829;49.208;12.080;2024-01-30T04:27:35;-2.50;99.90
39079;DHT22;24829;49.208;12.080;2024-01-30T04:30:01;-2.50;99.90
39079;DHT22;24829;49.208;12.080;2024-01-30T04:32:26;-2.50;99.90
39079;DHT22;24829;49.208;12.080;2024-01-30T04:34:52;-2.50;99.90
39079;DHT22;24829;49.208;12.080;2024-01-30T04:37:17;-2.50;99.90
39079;DHT22;24829;49.208;12.080;2024-01-30T04:39:43;-2.50;99.90
39079;DHT22;24829;49.208;12.080;2024-01-30T04:42:08;-2.50;99.90
39079;DHT22;24829;49.208;12.080;2024-01-30T04:44:34;-2.50;99.90
39079;DHT22;24829;49.208;12.080;2024-01-30T04:46:59;-2.50;99.90
39079;DHT22;24829;49.208;12.080;2024-01-30T04:49:27;-2.50;99.90
39079;DHT22;24829;49.208;12.080;2024-01-30T04:51:52;-2.50;99.90
39079;DHT22;24829;49.208;12.080;2024-01-30T04:54:18;-2.50;99.90
39079;DHT22;24829;49.208;12.080;2024-01-30T04:56:44;-2.50;99.90
39079;DHT22;24829;49.208;12.080;2024-01-30T04:59:09;-2.50;99.90
39079;DHT22;24829;49.208;12.080;2024-01-30T05:01:35;-2.40;99.90
39079;DHT22;24829;49.208;12.080;2024-01-30T05:04:00;-2.40;99.90
39079;DHT22;24829;49.208;12.080;2024-01-30T05:06:29;-2.40;99.90
39079;DHT22;24829;49.208;12.080;2024-01-30T05:08:55;-2.40;99.90
39079;DHT22;24829;49.208;12.080;2024-01-30T05:11:21;-2.40;99.90
39079;DHT22;24829;49.208;12.080;2024-01-30T05:13:46;-2.40;99.90
39079;DHT22;24829;49.208;12.080;2024-01-30T05:16:12;-2.40;99.90
39079;DHT22;24829;49.208;12.080;2024-01-30T05:18:38;-2.30;99.90
39079;DHT22;24829;49.208;12.080;2024-01-30T05:21:04;-2.40;99.90
39079;DHT22;24829;49.208;12.080;2024-01-30T05:23:29;-2.30;99.90
39079;DHT22;24829;49.208;12.080;2024-01-30T05:25:55;-2.30;99.90
39079;DHT22;24829;49.208;12.080;2024-01-30T05:28:20;-2.30;99.90
39079;DHT22;24829;49.208;12.080;2024-01-30T05:30:46;-2.30;99.90
39079;DHT22;24829;49.208;12.080;2024-01-30T05:33:11;-2.30;99.90
39079;DHT22;24829;49.208;12.080;2024-01-30T05:35:38;-2.30;99.90
39079;DHT22;24829;49.208;12.080;2024-01-30T05:38:04;-2.30;99.90
39079;DHT22;24829;49.208;12.080;2024-01-30T05:40:30;-2.30;99.90
39079;DHT22;24829;49.208;12.080;2024-01-30T05:42:56;-2.30;99.90
39079;DHT22;24829;49.208;12.080;2024-01-30T05:45:23;-2.40;99.90
39079;DHT22;24829;49.208;12.080;2024-01-30T05:47:49;-2.40;99.90
39079;DHT22;24829;49.208;12.080;2024-01-30T05:50:14;-2.40;99.90
39079;DHT22;24829;49.208;12.080;2024-01-30T05:52:40;-2.40;99.90
39079;DHT22;24829;49.208;12.080;2024-01-30T05:55:06;-2.40;99.90
39079;DHT22;24829;49.208;12.080;2024-01-30T05:57:31;-2.40;99.90
39079;DHT22;24829;49.208;12.080;2024-01-30T05:59:57;-2.50;99.90
39079;DHT22;24829;49.208;12.080;2024-01-30T06:02:23;-2.60;99.90
39079;DHT22;24829;49.208;12.080;2024-01-30T06:04:48;-2.70;99.90
39079;DHT22;24829;49.208;12.080;2024-01-30T06:07:14;-2.70;99.90
39079;DHT22;24829;49.208;12.080;2024-01-30T06:09:39;-2.70;99.90
39079;DHT22;24829;49.208;12.080;2024-01-30T06:12:06;-2.70;99.90
39079;DHT22;24829;49.208;12.080;2024-01-30T06:14:32;-2.60;99.90
39079;DHT22;24829;49.208;12.080;2024-01-30T06:16:59;-2.60;99.90
39079;DHT22;24829;49.208;12.080;2024-01-30T06:19:24;-2.60;99.90
39079;DHT22;24829;49.208;12.080;2024-01-30T06:21:50;-2.60;99.90
39079;DHT22;24829;49.208;12.080;2024-01-30T06:24:16;-2.60;99.90
39079;DHT22;24829;49.208;12.080;2024-01-30T06:26:41;-2.60;99.90
39079;DHT22;24829;49.208;12.080;2024-01-30T06:29:07;-2.60;99.90
39079;DHT22;24829;49.208;12.080;2024-01-30T06:31:33;-2.70;99.90
39079;DHT22;24829;49.208;12.080;2024-01-30T06:33:58;-2.70;99.90
39079;DHT22;24829;49.208;12.080;2024-01-30T06:36:24;-2.70;99.90
39079;DHT22;24829;49.208;12.080;2024-01-30T06:38:49;-2.70;99.90
39079;DHT22;24829;49.208;12.080;2024-01-30T06:41:15;-2.70;99.90
39079;DHT22;24829;49.208;12.080;2024-01-30T06:43:41;-2.70;99.90
39079;DHT22;24829;49.208;12.080;2024-01-30T06:46:06;-2.70;99.90
39079;DHT22;24829;49.208;12.080;2024-01-30T06:48:32;-2.70;99.90
39079;DHT22;24829;49.208;12.080;2024-01-30T06:50:57;-2.70;99.90
39079;DHT22;24829;49.208;12.080;2024-01-30T06:53:23;-2.70;99.90
39079;DHT22;24829;49.208;12.080;2024-01-30T06:55:49;-2.70;99.90
39079;DHT22;24829;49.208;12.080;2024-01-30T06:58:14;-2.70;99.90
39079;DHT22;24829;49.208;12.080;2024-01-30T07:00:40;-2.70;99.90
39079;DHT22;24829;49.208;12.080;2024-01-30T07:03:06;-2.60;99.90
39079;DHT22;24829;49.208;12.080;2024-01-30T07:05:32;-2.60;99.90
39079;DHT22;24829;49.208;12.080;2024-01-30T07:07:57;-2.60;99.90
39079;DHT22;24829;49.208;12.080;2024-01-30T07:10:23;-2.60;99.90
39079;DHT22;24829;49.208;12.080;2024-01-30T07:12:48;-2.50;99.90
39079;DHT22;24829;49.208;12.080;2024-01-30T07:15:14;-2.50;99.90
39079;DHT22;24829;49.208;12.080;2024-01-30T07:17:43;-2.50;99.90
39079;DHT22;24829;49.208;12.080;2024-01-30T07:20:09;-2.60;99.90
39079;DHT22;24829;49.208;12.080;2024-01-30T07:22:34;-2.60;99.90
39079;DHT22;24829;49.208;12.080;2024-01-30T07:25:00;-2.60;99.90
39079;DHT22;24829;49.208;12.080;2024-01-30T07:27:26;-2.60;99.90
39079;DHT22;24829;49.208;12.080;2024-01-30T07:29:51;-2.60;99.90
39079;DHT22;24829;49.208;12.080;2024-01-30T07:32:17;-2.60;99.90
39079;DHT22;24829;49.208;12.080;2024-01-30T07:34:44;-2.50;99.90
39079;DHT22;24829;49.208;12.080;2024-01-30T07:37:09;-2.40;99.90
39079;DHT22;24829;49.208;12.080;2024-01-30T07:39:36;-2.40;99.90
39079;DHT22;24829;49.208;12.080;2024-01-30T07:42:02;-2.20;99.90
39079;DHT22;24829;49.208;12.080;2024-01-30T07:44:28;-2.10;99.90
39079;DHT22;24829;49.208;12.080;2024-01-30T07:46:53;-2.00;99.90
39079;DHT22;24829;49.208;12.080;2024-01-30T07:49:20;-2.00;99.90
39079;DHT22;24829;49.208;12.080;2024-01-30T07:51:45;-1.90;99.90
39079;DHT22;24829;49.208;12.080;2024-01-30T07:54:14;-1.80;99.90
39079;DHT22;24829;49.208;12.080;2024-01-30T07:56:40;-1.70;99.90
39079;DHT22;24829;49.208;12.080;2024-01-30T07:59:09;-1.70;99.90
39079;DHT22;24829;49.208;12.080;2024-01-30T08:01:34;-1.60;99.90
39079;DHT22;24829;49.208;12.080;2024-01-30T08:04:00;-1.50;99.90
39079;DHT22;24829;49.208;12.080;2024-01-30T08:06:25;-1.40;99.90
39079;DHT22;24829;49.208;12.080;2024-01-30T08:08:51;-1.30;99.90
39079;DHT22;24829;49.208;12.080;2024-01-30T08:11:20;-1.30;99.90
39079;DHT22;24829;49.208;12.080;2024-01-30T08:13:45;-1.20;99.90
39079;DHT22;24829;49.208;12.080;2024-01-30T08:16:11;-1.10;99.90
39079;DHT22;24829;49.208;12.080;2024-01-30T08:18:37;-1.10;99.90
39079;DHT22;24829;49.208;12.080;2024-01-30T08:21:03;-1.00;99.90
39079;DHT22;24829;49.208;12.080;2024-01-30T08:23:28;-0.90;99.90
39079;DHT22;24829;49.208;12.080;2024-01-30T08:25:54;-0.90;99.90
39079;DHT22;24829;49.208;12.080;2024-01-30T08:28:19;-0.80;99.90
39079;DHT22;24829;49.208;12.080;2024-01-30T08:30:45;-0.80;99.90
39079;DHT22;24829;49.208;12.080;2024-01-30T08:33:10;-0.70;99.90
39079;DHT22;24829;49.208;12.080;2024-01-30T08:35:36;-0.60;99.90
39079;DHT22;24829;49.208;12.080;2024-01-30T08:38:01;-0.50;99.90
39079;DHT22;24829;49.208;12.080;2024-01-30T08:40:29;-0.50;99.90
39079;DHT22;24829;49.208;12.080;2024-01-30T08:42:55;-0.40;99.90
39079;DHT22;24829;49.208;12.080;2024-01-30T08:45:20;-0.30;99.90
39079;DHT22;24829;49.208;12.080;2024-01-30T08:47:46;-0.30;99.90
39079;DHT22;24829;49.208;12.080;2024-01-30T08:50:11;-0.20;99.90
39079;DHT22;24829;49.208;12.080;2024-01-30T08:52:37;-0.20;99.90
39079;DHT22;24829;49.208;12.080;2024-01-30T08:55:03;-0.10;99.90
39079;DHT22;24829;49.208;12.080;2024-01-30T08:57:29;0.00;99.90
39079;DHT22;24829;49.208;12.080;2024-01-30T08:59:56;0.10;99.90
39079;DHT22;24829;49.208;12.080;2024-01-30T09:02:21;0.20;99.90
39079;DHT22;24829;49.208;12.080;2024-01-30T09:04:47;0.30;99.90
39079;DHT22;24829;49.208;12.080;2024-01-30T09:07:13;0.30;99.90
39079;DHT22;24829;49.208;12.080;2024-01-30T09:09:39;0.30;99.90
39079;DHT22;24829;49.208;12.080;2024-01-30T09:12:06;0.40;99.90
39079;DHT22;24829;49.208;12.080;2024-01-30T09:14:35;0.50;99.90
39079;DHT22;24829;49.208;12.080;2024-01-30T09:17:01;0.50;99.90
39079;DHT22;24829;49.208;12.080;2024-01-30T09:19:26;0.60;99.90
39079;DHT22;24829;49.208;12.080;2024-01-30T09:21:52;0.70;99.90
39079;DHT22;24829;49.208;12.080;2024-01-30T09:24:17;0.70;99.90
39079;DHT22;24829;49.208;12.080;2024-01-30T09:26:43;0.80;99.90
39079;DHT22;24829;49.208;12.080;2024-01-30T09:29:08;0.90;99.90
39079;DHT22;24829;49.208;12.080;2024-01-30T09:31:34;0.90;99.90
39079;DHT22;24829;49.208;12.080;2024-01-30T09:33:59;0.90;99.90
39079;DHT22;24829;49.208;12.080;2024-01-30T09:36:25;1.00;99.90
39079;DHT22;24829;49.208;12.080;2024-01-30T09:38:51;1.00;99.90
39079;DHT22;24829;49.208;12.080;2024-01-30T09:41:19;1.00;99.90
39079;DHT22;24829;49.208;12.080;2024-01-30T09:43:47;1.10;99.90
39079;DHT22;24829;49.208;12.080;2024-01-30T09:46:15;1.10;99.90
39079;DHT22;24829;49.208;12.080;2024-01-30T09:48:42;1.10;99.90
39079;DHT22;24829;49.208;12.080;2024-01-30T09:51:09;1.20;99.90
39079;DHT22;24829;49.208;12.080;2024-01-30T09:53:36;1.20;99.90
39079;DHT22;24829;49.208;12.080;2024-01-30T09:56:02;1.30;99.90
39079;DHT22;24829;49.208;12.080;2024-01-30T09:58:28;1.40;99.90
39079;DHT22;24829;49.208;12.080;2024-01-30T10:00:54;1.40;99.90
39079;DHT22;24829;49.208;12.080;2024-01-30T10:03:19;1.50;99.90
39079;DHT22;24829;49.208;12.080;2024-01-30T10:05:51;1.70;99.90
39079;DHT22;24829;49.208;12.080;2024-01-30T10:08:18;1.70;99.90
39079;DHT22;24829;49.208;12.080;2024-01-30T10:10:49;1.70;99.90
39079;DHT22;24829;49.208;12.080;2024-01-30T10:13:15;1.80;99.90
39079;DHT22;24829;49.208;12.080;2024-01-30T10:15:41;1.80;99.90
39079;DHT22;24829;49.208;12.080;2024-01-30T10:18:08;1.90;99.90
39079;DHT22;24829;49.208;12.080;2024-01-30T10:20:35;1.90;99.90
39079;DHT22;24829;49.208;12.080;2024-01-30T10:23:01;2.10;99.90
39079;DHT22;24829;49.208;12.080;2024-01-30T10:25:27;2.10;99.90
39079;DHT22;24829;49.208;12.080;2024-01-30T10:27:53;2.30;99.90
39079;DHT22;24829;49.208;12.080;2024-01-30T10:30:22;2.30;99.90
39079;DHT22;24829;49.208;12.080;2024-01-30T10:32:48;2.40;99.90
39079;DHT22;24829;49.208;12.080;2024-01-30T10:35:15;2.50;99.90
39079;DHT22;24829;49.208;12.080;2024-01-30T10:37:48;2.60;99.90
39079;DHT22;24829;49.208;12.080;2024-01-30T10:40:14;2.70;99.90
39079;DHT22;24829;49.208;12.080;2024-01-30T10:42:44;2.70;99.90
39079;DHT22;24829;49.208;12.080;2024-01-30T10:45:14;2.80;99.90
39079;DHT22;24829;49.208;12.080;2024-01-30T10:47:49;2.80;99.90
39079;DHT22;24829;49.208;12.080;2024-01-30T10:50:16;2.80;99.90
39079;DHT22;24829;49.208;12.080;2024-01-30T10:52:42;2.90;99.90
39079;DHT22;24829;49.208;12.080;2024-01-30T10:55:09;2.90;99.90
39079;DHT22;24829;49.208;12.080;2024-01-30T10:57:35;3.00;99.90
39079;DHT22;24829;49.208;12.080;2024-01-30T11:00:04;3.00;99.90
39079;DHT22;24829;49.208;12.080;2024-01-30T11:02:32;3.00;99.90
39079;DHT22;24829;49.208;12.080;2024-01-30T11:04:58;3.00;99.90
39079;DHT22;24829;49.208;12.080;2024-01-30T11:07:27;3.00;99.90
39079;DHT22;24829;49.208;12.080;2024-01-30T11:09:54;2.90;99.90
39079;DHT22;24829;49.208;12.080;2024-01-30T11:12:24;2.90;99.90
39079;DHT22;24829;49.208;12.080;2024-01-30T11:20:16;3.00;99.90
39079;DHT22;24829;49.208;12.080;2024-01-30T11:22:48;3.10;99.90
39079;DHT22;24829;49.208;12.080;2024-01-30T11:25:15;3.10;99.90
39079;DHT22;24829;49.208;12.080;2024-01-30T11:27:46;3.20;99.90
39079;DHT22;24829;49.208;12.080;2024-01-30T11:30:29;3.20;99.90
39079;DHT22;24829;49.208;12.080;2024-01-30T11:33:14;3.30;99.90
39079;DHT22;24829;49.208;12.080;2024-01-30T11:35:41;3.40;99.90
39079;DHT22;24829;49.208;12.080;2024-01-30T11:38:09;3.60;99.90
39079;DHT22;24829;49.208;12.080;2024-01-30T11:40:36;3.70;99.90
39079;DHT22;24829;49.208;12.080;2024-01-30T11:43:03;3.80;99.90
39079;DHT22;24829;49.208;12.080;2024-01-30T11:45:30;4.00;99.90
39079;DHT22;24829;49.208;12.080;2024-01-30T11:47:56;4.20;99.90
39079;DHT22;24829;49.208;12.080;2024-01-30T11:50:23;4.40;99.90
39079;DHT22;24829;49.208;12.080;2024-01-30T11:52:48;4.50;99.90
39079;DHT22;24829;49.208;12.080;2024-01-30T11:55:17;4.60;99.90
39079;DHT22;24829;49.208;12.080;2024-01-30T11:57:44;4.70;99.90
39079;DHT22;24829;49.208;12.080;2024-01-30T12:00:19;4.80;99.90
39079;DHT22;24829;49.208;12.080;2024-01-30T12:02:54;4.80;99.90
39079;DHT22;24829;49.208;12.080;2024-01-30T12:05:24;4.80;99.90
39079;DHT22;24829;49.208;12.080;2024-01-30T12:07:49;4.90;99.90
39079;DHT22;24829;49.208;12.080;2024-01-30T12:10:15;4.90;99.90
39079;DHT22;24829;49.208;12.080;2024-01-30T12:12:43;4.90;99.90
39079;DHT22;24829;49.208;12.080;2024-01-30T12:15:10;4.90;99.90
39079;DHT22;24829;49.208;12.080;2024-01-30T12:17:36;4.90;99.90
39079;DHT22;24829;49.208;12.080;2024-01-30T12:20:17;4.90;99.90
39079;DHT22;24829;49.208;12.080;2024-01-30T12:22:47;4.90;99.90
39079;DHT22;24829;49.208;12.080;2024-01-30T12:25:18;5.00;99.90
39079;DHT22;24829;49.208;12.080;2024-01-30T12:27:46;5.10;99.90
39079;DHT22;24829;49.208;12.080;2024-01-30T12:30:13;5.00;99.90
39079;DHT22;24829;49.208;12.080;2024-01-30T12:32:43;5.10;99.90
39079;DHT22;24829;49.208;12.080;2024-01-30T12:35:13;5.10;99.90
39079;DHT22;24829;49.208;12.080;2024-01-30T12:37:40;5.10;99.90
39079;DHT22;24829;49.208;12.080;2024-01-30T12:40:07;5.10;99.90
39079;DHT22;24829;49.208;12.080;2024-01-30T12:42:33;5.20;99.90
39079;DHT22;24829;49.208;12.080;2024-01-30T12:44:59;5.20;99.90
39079;DHT22;24829;49.208;12.080;2024-01-30T12:47:25;5.20;99.90
39079;DHT22;24829;49.208;12.080;2024-01-30T12:49:51;5.20;99.90
39079;DHT22;24829;49.208;12.080;2024-01-30T12:52:20;5.20;99.90
39079;DHT22;24829;49.208;12.080;2024-01-30T12:54:47;5.20;99.90
39079;DHT22;24829;49.208;12.080;2024-01-30T12:57:12;5.20;99.90
39079;DHT22;24829;49.208;12.080;2024-01-30T12:59:38;5.20;99.90
39079;DHT22;24829;49.208;12.080;2024-01-30T13:02:04;5.20;99.90
39079;DHT22;24829;49.208;12.080;2024-01-30T13:04:30;5.20;99.90
39079;DHT22;24829;49.208;12.080;2024-01-30T13:06:56;5.20;99.90
39079;DHT22;24829;49.208;12.080;2024-01-30T13:09:22;5.10;99.90
39079;DHT22;24829;49.208;12.080;2024-01-30T13:11:49;5.10;99.90
39079;DHT22;24829;49.208;12.080;2024-01-30T13:14:15;5.10;99.90
39079;DHT22;24829;49.208;12.080;2024-01-30T13:16:41;5.10;99.90
39079;DHT22;24829;49.208;12.080;2024-01-30T13:19:06;5.10;99.90
39079;DHT22;24829;49.208;12.080;2024-01-30T13:21:32;5.00;99.90
39079;DHT22;24829;49.208;12.080;2024-01-30T13:23:57;4.90;99.90
39079;DHT22;24829;49.208;12.080;2024-01-30T13:26:23;4.90;99.90
39079;DHT22;24829;49.208;12.080;2024-01-30T13:28:48;4.90;99.90
39079;DHT22;24829;49.208;12.080;2024-01-30T13:31:16;4.90;99.90
39079;DHT22;24829;49.208;12.080;2024-01-30T13:33:41;4.90;99.90
39079;DHT22;24829;49.208;12.080;2024-01-30T13:36:08;4.90;99.90
39079;DHT22;24829;49.208;12.080;2024-01-30T13:38:35;4.90;99.90
39079;DHT22;24829;49.208;12.080;2024-01-30T13:41:00;4.90;99.90
39079;DHT22;24829;49.208;12.080;2024-01-30T13:43:26;4.90;99.90
39079;DHT22;24829;49.208;12.080;2024-01-30T13:45:52;4.90;99.90
39079;DHT22;24829;49.208;12.080;2024-01-30T13:48:19;5.00;99.90
39079;DHT22;24829;49.208;12.080;2024-01-30T13:50:44;5.00;99.90
39079;DHT22;24829;49.208;12.080;2024-01-30T13:53:11;5.00;99.90
39079;DHT22;24829;49.208;12.080;2024-01-30T13:55:37;5.00;99.90
39079;DHT22;24829;49.208;12.080;2024-01-30T13:58:03;5.00;99.90
39079;DHT22;24829;49.208;12.080;2024-01-30T14:00:29;5.00;99.90
39079;DHT22;24829;49.208;12.080;2024-01-30T14:02:54;5.00;99.90
39079;DHT22;24829;49.208;12.080;2024-01-30T14:05:21;5.00;99.90
39079;DHT22;24829;49.208;12.080;2024-01-30T14:07:50;5.00;99.90
39079;DHT22;24829;49.208;12.080;2024-01-30T14:10:15;5.00;99.90
39079;DHT22;24829;49.208;12.080;2024-01-30T14:12:44;5.10;99.90
39079;DHT22;24829;49.208;12.080;2024-01-30T14:15:10;5.10;99.90
39079;DHT22;24829;49.208;12.080;2024-01-30T14:17:36;5.10;99.90
39079;DHT22;24829;49.208;12.080;2024-01-30T14:20:05;5.20;99.90
39079;DHT22;24829;49.208;12.080;2024-01-30T14:22:32;5.20;99.90
39079;DHT22;24829;49.208;12.080;2024-01-30T14:24:59;5.20;99.90
39079;DHT22;24829;49.208;12.080;2024-01-30T14:27:24;5.20;99.90
39079;DHT22;24829;49.208;12.080;2024-01-30T14:29:50;5.10;99.90
39079;DHT22;24829;49.208;12.080;2024-01-30T14:32:15;5.00;99.90
39079;DHT22;24829;49.208;12.080;2024-01-30T14:34:41;4.90;99.90
39079;DHT22;24829;49.208;12.080;2024-01-30T14:37:07;4.90;99.90
39079;DHT22;24829;49.208;12.080;2024-01-30T14:39:32;4.80;99.90
39079;DHT22;24829;49.208;12.080;2024-01-30T14:41:59;4.80;99.90
39079;DHT22;24829;49.208;12.080;2024-01-30T14:44:25;4.70;99.90
39079;DHT22;24829;49.208;12.080;2024-01-30T14:46:50;4.60;99.90
39079;DHT22;24829;49.208;12.080;2024-01-30T14:49:16;4.60;99.90
39079;DHT22;24829;49.208;12.080;2024-01-30T14:51:42;4.50;99.90
39079;DHT22;24829;49.208;12.080;2024-01-30T14:54:08;4.40;99.90
39079;DHT22;24829;49.208;12.080;2024-01-30T14:56:33;4.40;99.90
39079;DHT22;24829;49.208;12.080;2024-01-30T14:59:00;4.30;99.90
39079;DHT22;24829;49.208;12.080;2024-01-30T15:01:25;4.30;99.90
39079;DHT22;24829;49.208;12.080;2024-01-30T15:03:51;4.20;99.90
39079;DHT22;24829;49.208;12.080;2024-01-30T15:06:17;4.20;99.90
39079;DHT22;24829;49.208;12.080;2024-01-30T15:08:43;4.10;99.90
39079;DHT22;24829;49.208;12.080;2024-01-30T15:11:09;4.10;99.90
39079;DHT22;24829;49.208;12.080;2024-01-30T15:13:35;4.00;99.90
39079;DHT22;24829;49.208;12.080;2024-01-30T15:16:00;4.00;99.90
39079;DHT22;24829;49.208;12.080;2024-01-30T15:18:28;3.90;99.90
39079;DHT22;24829;49.208;12.080;2024-01-30T15:20:54;3.90;99.90
39079;DHT22;24829;49.208;12.080;2024-01-30T15:23:19;3.80;99.90